sensor_id;sensor_type;location;lat;lon;timestamp;temperature;humidity
14277;DHT22;7222;57.346;12.150;2022-08-21T00:00:58;13.20;99.90
14277;DHT22;7222;57.346;12.150;2022-08-21T00:03:26;13.10;99.90
14277;DHT22;7222;57.346;12.150;2022-08-21T00:05:53;13.00;99.90
14277;DHT22;7222;57.346;12.150;2022-08-21T00:08:22;13.00;99.90
14277;DHT22;7222;57.346;12.150;2022-08-21T00:10:49;13.00;99.90
14277;DHT22;7222;57.346;12.150;2022-08-21T00:13:17;12.90;99.90
14277;DHT22;7222;57.346;12.150;2022-08-21T00:15:46;12.90;99.90
14277;DHT22;7222;57.346;12.150;2022-08-21T00:18:14;12.90;99.90
14277;DHT22;7222;57.346;12.150;2022-08-21T00:20:42;12.80;99.90
14277;DHT22;7222;57.346;12.150;2022-08-21T00:23:10;12.80;99.90
14277;DHT22;7222;57.346;12.150;2022-08-21T00:25:38;12.70;99.90
14277;DHT22;7222;57.346;12.150;2022-08-21T00:28:05;12.70;99.90
14277;DHT22;7222;57.346;12.150;2022-08-21T00:30:33;12.60;99.90
14277;DHT22;7222;57.346;12.150;2022-08-21T00:33:01;12.60;99.90
14277;DHT22;7222;57.346;12.150;2022-08-21T00:35:30;12.50;99.90
14277;DHT22;7222;57.346;12.150;2022-08-21T00:37:58;12.50;99.90
14277;DHT22;7222;57.346;12.150;2022-08-21T00:40:29;12.50;99.90
14277;DHT22;7222;57.346;12.150;2022-08-21T00:42:58;12.40;99.90
14277;DHT22;7222;57.346;12.150;2022-08-21T00:45:25;12.40;99.90
14277;DHT22;7222;57.346;12.150;2022-08-21T00:47:53;12.30;99.90
14277;DHT22;7222;57.346;12.150;2022-08-21T00:50:23;12.30;99.90
14277;DHT22;7222;57.346;12.150;2022-08-21T00:52:52;12.30;99.90
14277;DHT22;7222;57.346;12.150;2022-08-21T00:55:20;12.20;99.90
14277;DHT22;7222;57.346;12.150;2022-08-21T00:57:52;12.20;99.90
14277;DHT22;7222;57.346;12.150;2022-08-21T01:00:24;12.20;99.90
14277;DHT22;7222;57.346;12.150;2022-08-21T01:02:53;12.10;99.90
14277;DHT22;7222;57.346;12.150;2022-08-21T01:05:20;12.10;99.90
14277;DHT22;7222;57.346;12.150;2022-08-21T01:07:47;12.00;99.90
14277;DHT22;7222;57.346;12.150;2022-08-21T01:10:15;12.00;99.90
14277;DHT22;7222;57.346;12.150;2022-08-21T01:12:43;12.00;99.90
14277;DHT22;7222;57.346;12.150;2022-08-21T01:15:11;12.00;99.90
14277;DHT22;7222;57.346;12.150;2022-08-21T01:17:42;11.90;99.90
14277;DHT22;7222;57.346;12.150;2022-08-21T01:20:11;11.90;99.90
14277;DHT22;7222;57.346;12.150;2022-08-21T01:22:39;11.90;99.90
14277;DHT22;7222;57.346;12.150;2022-08-21T01:25:09;11.90;99.90
14277;DHT22;7222;57.346;12.150;2022-08-21T01:27:36;11.90;99.90
14277;DHT22;7222;57.346;12.150;2022-08-21T01:30:09;11.90;99.90
14277;DHT22;7222;57.346;12.150;2022-08-21T01:32:36;11.90;99.90
14277;DHT22;7222;57.346;12.150;2022-08-21T01:35:04;11.90;99.90
14277;DHT22;7222;57.346;12.150;2022-08-21T01:37:32;11.90;99.90
14277;DHT22;7222;57.346;12.150;2022-08-21T01:40:02;11.90;99.90
14277;DHT22;7222;57.346;12.150;2022-08-21T01:42:29;11.90;99.90
14277;DHT22;7222;57.346;12.150;2022-08-21T01:44:56;11.90;99.90
14277;DHT22;7222;57.346;12.150;2022-08-21T01:47:23;12.00;99.90
14277;DHT22;7222;57.346;12.150;2022-08-21T01:49:50;12.00;99.90
14277;DHT22;7222;57.346;12.150;2022-08-21T01:52:18;12.00;99.90
14277;DHT22;7222;57.346;12.150;2022-08-21T01:54:45;12.00;99.90
14277;DHT22;7222;57.346;12.150;2022-08-21T01:57:13;12.00;99.90
14277;DHT22;7222;57.346;12.150;2022-08-21T01:59:41;12.00;99.90
14277;DHT22;7222;57.346;12.150;2022-08-21T02:02:08;12.00;99.90
14277;DHT22;7222;57.346;12.150;2022-08-21T02:04:35;12.00;99.90
14277;DHT22;7222;57.346;12.150;2022-08-21T02:07:02;11.90;99.90
14277;DHT22;7222;57.346;12.150;2022-08-21T02:09:29;11.90;99.90
14277;DHT22;7222;57.346;12.150;2022-08-21T02:11:56;11.90;99.90
14277;DHT22;7222;57.346;12.150;2022-08-21T02:14:25;11.80;99.90
14277;DHT22;7222;57.346;12.150;2022-08-21T02:16:52;11.80;99.90
14277;DHT22;7222;57.346;12.150;2022-08-21T02:19:19;11.80;99.90
14277;DHT22;7222;57.346;12.150;2022-08-21T02:21:46;11.80;99.90
14277;DHT22;7222;57.346;12.150;2022-08-21T02:24:13;11.70;99.90
14277;DHT22;7222;57.346;12.150;2022-08-21T02:26:40;11.70;99.90
14277;DHT22;7222;57.346;12.150;2022-08-21T02:29:08;11.70;99.90
14277;DHT22;7222;57.346;12.150;2022-08-21T02:31:36;11.70;99.90
14277;DHT22;7222;57.346;12.150;2022-08-21T02:34:03;11.60;99.90
14277;DHT22;7222;57.346;12.150;2022-08-21T02:36:30;11.60;99.90
14277;DHT22;7222;57.346;12.150;2022-08-21T02:38:57;11.60;99.90
14277;DHT22;7222;57.346;12.150;2022-08-21T02:41:24;11.50;99.90
14277;DHT22;7222;57.346;12.150;2022-08-21T02:43:51;11.50;99.90
14277;DHT22;7222;57.346;12.150;2022-08-21T02:46:19;11.50;99.90
14277;DHT22;7222;57.346;12.150;2022-08-21T02:48:48;11.50;99.90
14277;DHT22;7222;57.346;12.150;2022-08-21T02:51:17;11.40;99.90
14277;DHT22;7222;57.346;12.150;2022-08-21T02:53:46;11.40;99.90
14277;DHT22;7222;57.346;12.150;2022-08-21T02:56:16;11.40;99.90
14277;DHT22;7222;57.346;12.150;2022-08-21T02:58:45;11.30;99.90
14277;DHT22;7222;57.346;12.150;2022-08-21T03:01:13;11.30;99.90
14277;DHT22;7222;57.346;12.150;2022-08-21T03:03:42;11.30;99.90
14277;DHT22;7222;57.346;12.150;2022-08-21T03:06:12;11.30;99.90
14277;DHT22;7222;57.346;12.150;2022-08-21T03:08:39;11.20;99.90
14277;DHT22;7222;57.346;12.150;2022-08-21T03:11:07;11.20;99.90
14277;DHT22;7222;57.346;12.150;2022-08-21T03:13:34;11.20;99.90
14277;DHT22;7222;57.346;12.150;2022-08-21T03:16:01;11.20;99.90
14277;DHT22;7222;57.346;12.150;2022-08-21T03:18:28;11.20;99.90
14277;DHT22;7222;57.346;12.150;2022-08-21T03:20:55;11.10;99.90
14277;DHT22;7222;57.346;12.150;2022-08-21T03:23:23;11.10;99.90
14277;DHT22;7222;57.346;12.150;2022-08-21T03:25:50;11.00;99.90
14277;DHT22;7222;57.346;12.150;2022-08-21T03:28:20;11.00;99.90
14277;DHT22;7222;57.346;12.150;2022-08-21T03:30:50;11.00;99.90
14277;DHT22;7222;57.346;12.150;2022-08-21T03:33:17;10.90;99.90
14277;DHT22;7222;57.346;12.150;2022-08-21T03:35:47;10.90;99.90
14277;DHT22;7222;57.346;12.150;2022-08-21T03:38:14;10.90;99.90
14277;DHT22;7222;57.346;12.150;2022-08-21T03:40:43;10.90;99.90
14277;DHT22;7222;57.346;12.150;2022-08-21T03:43:10;10.90;99.90
14277;DHT22;7222;57.346;12.150;2022-08-21T03:45:38;10.90;99.90
14277;DHT22;7222;57.346;12.150;2022-08-21T03:48:06;10.80;99.90
14277;DHT22;7222;57.346;12.150;2022-08-21T03:50:36;10.80;99.90
14277;DHT22;7222;57.346;12.150;2022-08-21T03:53:04;10.80;99.90
14277;DHT22;7222;57.346;12.150;2022-08-21T03:55:31;10.80;99.90
14277;DHT22;7222;57.346;12.150;2022-08-21T03:57:59;10.70;99.90
14277;DHT22;7222;57.346;12.150;2022-08-21T04:00:27;10.70;99.90
14277;DHT22;7222;57.346;12.150;2022-08-21T04:02:54;10.70;99.90
14277;DHT22;7222;57.346;12.150;2022-08-21T04:05:22;10.70;99.90
14277;DHT22;7222;57.346;12.150;2022-08-21T04:07:57;10.70;99.90
14277;DHT22;7222;57.346;12.150;2022-08-21T04:10:26;10.70;99.90
14277;DHT22;7222;57.346;12.150;2022-08-21T04:12:54;10.60;99.90
14277;DHT22;7222;57.346;12.150;2022-08-21T04:15:24;10.60;99.90
14277;DHT22;7222;57.346;12.150;2022-08-21T04:17:52;10.60;99.90
14277;DHT22;7222;57.346;12.150;2022-08-21T04:20:19;10.70;99.90
14277;DHT22;7222;57.346;12.150;2022-08-21T04:22:47;10.60;99.90
14277;DHT22;7222;57.346;12.150;2022-08-21T04:25:16;10.60;99.90
14277;DHT22;7222;57.346;12.150;2022-08-21T04:27:44;10.60;99.90
14277;DHT22;7222;57.346;12.150;2022-08-21T04:30:12;10.60;99.90
14277;DHT22;7222;57.346;12.150;2022-08-21T04:32:43;10.60;99.90
14277;DHT22;7222;57.346;12.150;2022-08-21T04:35:11;10.60;99.90
14277;DHT22;7222;57.346;12.150;2022-08-21T04:37:38;10.60;99.90
14277;DHT22;7222;57.346;12.150;2022-08-21T04:40:07;10.60;99.90
14277;DHT22;7222;57.346;12.150;2022-08-21T04:42:41;10.60;99.90
14277;DHT22;7222;57.346;12.150;2022-08-21T04:45:09;10.60;99.90
14277;DHT22;7222;57.346;12.150;2022-08-21T04:47:36;10.60;99.90
14277;DHT22;7222;57.346;12.150;2022-08-21T04:50:05;10.60;99.90
14277;DHT22;7222;57.346;12.150;2022-08-21T04:52:32;10.80;99.90
14277;DHT22;7222;57.346;12.150;2022-08-21T04:55:00;10.60;99.90
14277;DHT22;7222;57.346;12.150;2022-08-21T04:57:28;10.60;99.90
14277;DHT22;7222;57.346;12.150;2022-08-21T04:59:55;10.60;99.90
14277;DHT22;7222;57.346;12.150;2022-08-21T05:02:21;10.90;99.90
14277;DHT22;7222;57.346;12.150;2022-08-21T05:04:51;10.90;99.90
14277;DHT22;7222;57.346;12.150;2022-08-21T05:07:22;10.90;99.90
14277;DHT22;7222;57.346;12.150;2022-08-21T05:09:50;11.10;99.90
14277;DHT22;7222;57.346;12.150;2022-08-21T05:12:17;11.00;99.90
14277;DHT22;7222;57.346;12.150;2022-08-21T05:14:44;10.90;99.90
14277;DHT22;7222;57.346;12.150;2022-08-21T05:17:12;11.00;99.90
14277;DHT22;7222;57.346;12.150;2022-08-21T05:19:39;11.10;99.90
14277;DHT22;7222;57.346;12.150;2022-08-21T05:22:06;11.30;99.90
14277;DHT22;7222;57.346;12.150;2022-08-21T05:24:36;11.30;99.90
14277;DHT22;7222;57.346;12.150;2022-08-21T05:27:04;11.70;99.90
14277;DHT22;7222;57.346;12.150;2022-08-21T05:29:32;11.60;99.90
14277;DHT22;7222;57.346;12.150;2022-08-21T05:32:00;11.60;99.90
14277;DHT22;7222;57.346;12.150;2022-08-21T05:34:27;11.90;99.90
14277;DHT22;7222;57.346;12.150;2022-08-21T05:36:54;12.30;99.90
14277;DHT22;7222;57.346;12.150;2022-08-21T05:39:21;12.30;99.90
14277;DHT22;7222;57.346;12.150;2022-08-21T05:41:49;12.40;99.90
14277;DHT22;7222;57.346;12.150;2022-08-21T05:44:16;12.60;99.90
14277;DHT22;7222;57.346;12.150;2022-08-21T05:46:43;12.90;99.90
14277;DHT22;7222;57.346;12.150;2022-08-21T05:49:11;13.10;99.90
14277;DHT22;7222;57.346;12.150;2022-08-21T05:51:40;13.10;99.90
14277;DHT22;7222;57.346;12.150;2022-08-21T05:54:07;13.30;99.90
14277;DHT22;7222;57.346;12.150;2022-08-21T05:56:34;13.50;99.90
14277;DHT22;7222;57.346;12.150;2022-08-21T05:59:02;13.70;99.90
14277;DHT22;7222;57.346;12.150;2022-08-21T06:01:29;13.80;99.90
14277;DHT22;7222;57.346;12.150;2022-08-21T06:03:56;13.90;99.90
14277;DHT22;7222;57.346;12.150;2022-08-21T06:06:23;14.10;99.90
14277;DHT22;7222;57.346;12.150;2022-08-21T06:08:50;14.20;99.90
14277;DHT22;7222;57.346;12.150;2022-08-21T06:11:18;14.30;99.90
14277;DHT22;7222;57.346;12.150;2022-08-21T06:13:45;14.40;99.90
14277;DHT22;7222;57.346;12.150;2022-08-21T06:16:15;14.60;99.90
14277;DHT22;7222;57.346;12.150;2022-08-21T06:18:47;14.70;99.90
14277;DHT22;7222;57.346;12.150;2022-08-21T06:21:14;14.80;99.90
14277;DHT22;7222;57.346;12.150;2022-08-21T06:23:42;15.00;99.90
14277;DHT22;7222;57.346;12.150;2022-08-21T06:26:11;15.20;99.90
14277;DHT22;7222;57.346;12.150;2022-08-21T06:28:39;15.40;99.90
14277;DHT22;7222;57.346;12.150;2022-08-21T06:31:13;15.50;99.90
14277;DHT22;7222;57.346;12.150;2022-08-21T06:33:40;15.70;99.90
14277;DHT22;7222;57.346;12.150;2022-08-21T06:36:08;15.90;99.90
14277;DHT22;7222;57.346;12.150;2022-08-21T06:38:35;16.20;99.90
14277;DHT22;7222;57.346;12.150;2022-08-21T06:41:02;16.40;99.90
14277;DHT22;7222;57.346;12.150;2022-08-21T06:43:30;16.50;99.90
14277;DHT22;7222;57.346;12.150;2022-08-21T06:45:57;16.60;99.90
14277;DHT22;7222;57.346;12.150;2022-08-21T06:48:25;16.60;99.90
14277;DHT22;7222;57.346;12.150;2022-08-21T06:50:52;16.80;99.90
14277;DHT22;7222;57.346;12.150;2022-08-21T06:53:20;16.90;99.90
14277;DHT22;7222;57.346;12.150;2022-08-21T06:55:48;17.00;99.90
14277;DHT22;7222;57.346;12.150;2022-08-21T06:58:15;17.00;99.90
14277;DHT22;7222;57.346;12.150;2022-08-21T07:00:44;17.30;99.90
14277;DHT22;7222;57.346;12.150;2022-08-21T07:03:17;17.40;99.90
14277;DHT22;7222;57.346;12.150;2022-08-21T07:05:46;17.40;99.90
14277;DHT22;7222;57.346;12.150;2022-08-21T07:08:13;17.60;99.90
14277;DHT22;7222;57.346;12.150;2022-08-21T07:10:41;17.70;99.90
14277;DHT22;7222;57.346;12.150;2022-08-21T07:13:08;17.70;99.90
14277;DHT22;7222;57.346;12.150;2022-08-21T07:15:35;17.80;99.90
14277;DHT22;7222;57.346;12.150;2022-08-21T07:18:03;17.90;99.90
14277;DHT22;7222;57.346;12.150;2022-08-21T07:20:30;17.70;99.90
14277;DHT22;7222;57.346;12.150;2022-08-21T07:23:01;17.80;99.90
14277;DHT22;7222;57.346;12.150;2022-08-21T07:25:28;17.90;99.90
14277;DHT22;7222;57.346;12.150;2022-08-21T07:27:55;18.20;99.90
14277;DHT22;7222;57.346;12.150;2022-08-21T07:30:23;18.60;99.90
14277;DHT22;7222;57.346;12.150;2022-08-21T07:32:50;18.90;99.90
14277;DHT22;7222;57.346;12.150;2022-08-21T07:35:18;18.90;99.90
14277;DHT22;7222;57.346;12.150;2022-08-21T07:37:46;18.60;99.90
14277;DHT22;7222;57.346;12.150;2022-08-21T07:40:15;18.50;99.90
14277;DHT22;7222;57.346;12.150;2022-08-21T07:42:43;18.70;99.90
14277;DHT22;7222;57.346;12.150;2022-08-21T07:45:12;19.10;99.90
14277;DHT22;7222;57.346;12.150;2022-08-21T07:47:39;19.30;99.90
14277;DHT22;7222;57.346;12.150;2022-08-21T07:50:07;19.40;99.90
14277;DHT22;7222;57.346;12.150;2022-08-21T07:52:34;19.60;99.90
14277;DHT22;7222;57.346;12.150;2022-08-21T07:55:01;19.70;99.90
14277;DHT22;7222;57.346;12.150;2022-08-21T07:57:29;19.60;99.90
14277;DHT22;7222;57.346;12.150;2022-08-21T07:59:56;19.60;99.90
14277;DHT22;7222;57.346;12.150;2022-08-21T08:02:24;19.70;99.90
14277;DHT22;7222;57.346;12.150;2022-08-21T08:04:51;19.80;99.90
14277;DHT22;7222;57.346;12.150;2022-08-21T08:07:19;20.10;99.90
14277;DHT22;7222;57.346;12.150;2022-08-21T08:09:46;20.20;99.90
14277;DHT22;7222;57.346;12.150;2022-08-21T08:12:13;20.30;99.90
14277;DHT22;7222;57.346;12.150;2022-08-21T08:14:41;20.60;99.90
14277;DHT22;7222;57.346;12.150;2022-08-21T08:17:08;20.40;99.90
14277;DHT22;7222;57.346;12.150;2022-08-21T08:19:36;20.40;99.90
14277;DHT22;7222;57.346;12.150;2022-08-21T08:22:13;20.50;99.90
14277;DHT22;7222;57.346;12.150;2022-08-21T08:24:40;20.80;99.90
14277;DHT22;7222;57.346;12.150;2022-08-21T08:27:07;20.90;99.90
14277;DHT22;7222;57.346;12.150;2022-08-21T08:29:34;21.00;99.90
14277;DHT22;7222;57.346;12.150;2022-08-21T08:32:05;21.20;99.90
14277;DHT22;7222;57.346;12.150;2022-08-21T08:34:33;21.20;99.90
14277;DHT22;7222;57.346;12.150;2022-08-21T08:37:00;21.50;99.90
14277;DHT22;7222;57.346;12.150;2022-08-21T08:39:27;21.30;99.90
14277;DHT22;7222;57.346;12.150;2022-08-21T08:41:59;21.30;99.90
14277;DHT22;7222;57.346;12.150;2022-08-21T08:44:27;21.40;99.90
14277;DHT22;7222;57.346;12.150;2022-08-21T08:46:56;21.70;99.90
14277;DHT22;7222;57.346;12.150;2022-08-21T08:49:31;22.10;99.90
14277;DHT22;7222;57.346;12.150;2022-08-21T08:52:04;21.80;99.90
14277;DHT22;7222;57.346;12.150;2022-08-21T08:54:35;22.00;99.90
14277;DHT22;7222;57.346;12.150;2022-08-21T08:57:09;21.90;99.90
14277;DHT22;7222;57.346;12.150;2022-08-21T08:59:40;21.70;99.90
14277;DHT22;7222;57.346;12.150;2022-08-21T09:02:10;21.90;99.90
14277;DHT22;7222;57.346;12.150;2022-08-21T09:04:40;22.40;99.90
14277;DHT22;7222;57.346;12.150;2022-08-21T09:07:15;22.70;99.90
14277;DHT22;7222;57.346;12.150;2022-08-21T09:09:55;22.50;99.90
14277;DHT22;7222;57.346;12.150;2022-08-21T09:12:39;22.20;99.90
14277;DHT22;7222;57.346;12.150;2022-08-21T09:15:15;23.00;99.90
14277;DHT22;7222;57.346;12.150;2022-08-21T09:18:07;22.20;99.90
14277;DHT22;7222;57.346;12.150;2022-08-21T09:20:47;22.20;99.90
14277;DHT22;7222;57.346;12.150;2022-08-21T09:23:23;22.80;99.90
14277;DHT22;7222;57.346;12.150;2022-08-21T09:25:58;22.40;99.90
14277;DHT22;7222;57.346;12.150;2022-08-21T09:28:31;21.90;99.90
14277;DHT22;7222;57.346;12.150;2022-08-21T09:30:59;21.50;99.90
14277;DHT22;7222;57.346;12.150;2022-08-21T09:33:29;22.00;99.90
14277;DHT22;7222;57.346;12.150;2022-08-21T09:35:57;22.50;99.90
14277;DHT22;7222;57.346;12.150;2022-08-21T09:38:27;23.00;99.90
14277;DHT22;7222;57.346;12.150;2022-08-21T09:41:00;23.20;99.90
14277;DHT22;7222;57.346;12.150;2022-08-21T09:43:27;22.60;99.90
14277;DHT22;7222;57.346;12.150;2022-08-21T09:46:08;23.10;99.90
14277;DHT22;7222;57.346;12.150;2022-08-21T09:48:42;23.00;99.90
14277;DHT22;7222;57.346;12.150;2022-08-21T09:51:12;23.40;99.90
14277;DHT22;7222;57.346;12.150;2022-08-21T09:53:44;23.20;99.90
14277;DHT22;7222;57.346;12.150;2022-08-21T09:56:26;21.80;99.90
14277;DHT22;7222;57.346;12.150;2022-08-21T09:59:17;23.00;99.90
14277;DHT22;7222;57.346;12.150;2022-08-21T10:01:47;23.30;99.90
14277;DHT22;7222;57.346;12.150;2022-08-21T10:04:14;23.60;99.90
14277;DHT22;7222;57.346;12.150;2022-08-21T10:06:43;23.10;99.90
14277;DHT22;7222;57.346;12.150;2022-08-21T10:09:13;23.00;99.90
14277;DHT22;7222;57.346;12.150;2022-08-21T10:11:43;22.90;99.90
14277;DHT22;7222;57.346;12.150;2022-08-21T10:14:20;23.00;99.90
14277;DHT22;7222;57.346;12.150;2022-08-21T10:17:01;23.20;99.90
14277;DHT22;7222;57.346;12.150;2022-08-21T10:19:36;23.20;99.90
14277;DHT22;7222;57.346;12.150;2022-08-21T10:22:16;22.60;99.90
14277;DHT22;7222;57.346;12.150;2022-08-21T10:24:52;22.30;99.90
14277;DHT22;7222;57.346;12.150;2022-08-21T10:27:29;22.50;99.90
14277;DHT22;7222;57.346;12.150;2022-08-21T10:30:02;22.10;99.90
14277;DHT22;7222;57.346;12.150;2022-08-21T10:33:00;22.30;99.90
14277;DHT22;7222;57.346;12.150;2022-08-21T10:35:30;22.60;99.90
14277;DHT22;7222;57.346;12.150;2022-08-21T10:38:40;22.80;99.90
14277;DHT22;7222;57.346;12.150;2022-08-21T10:41:16;23.20;99.90
14277;DHT22;7222;57.346;12.150;2022-08-21T10:43:50;23.00;99.90
14277;DHT22;7222;57.346;12.150;2022-08-21T10:46:30;22.50;99.90
14277;DHT22;7222;57.346;12.150;2022-08-21T10:49:11;22.30;99.90
14277;DHT22;7222;57.346;12.150;2022-08-21T10:51:45;22.30;99.90
14277;DHT22;7222;57.346;12.150;2022-08-21T10:54:26;23.10;99.90
14277;DHT22;7222;57.346;12.150;2022-08-21T10:57:00;22.60;99.90
14277;DHT22;7222;57.346;12.150;2022-08-21T10:59:32;22.70;99.90
14277;DHT22;7222;57.346;12.150;2022-08-21T11:02:03;22.70;99.90
14277;DHT22;7222;57.346;12.150;2022-08-21T11:04:40;22.10;99.90
14277;DHT22;7222;57.346;12.150;2022-08-21T11:07:15;22.20;99.90
14277;DHT22;7222;57.346;12.150;2022-08-21T11:09:46;22.00;99.90
14277;DHT22;7222;57.346;12.150;2022-08-21T11:12:22;22.70;99.90
14277;DHT22;7222;57.346;12.150;2022-08-21T11:14:55;22.40;99.90
14277;DHT22;7222;57.346;12.150;2022-08-21T11:17:30;22.20;99.90
14277;DHT22;7222;57.346;12.150;2022-08-21T11:20:03;22.70;99.90
14277;DHT22;7222;57.346;12.150;2022-08-21T11:22:37;22.30;99.90
14277;DHT22;7222;57.346;12.150;2022-08-21T11:25:11;22.20;99.90
14277;DHT22;7222;57.346;12.150;2022-08-21T11:27:44;22.00;99.90
14277;DHT22;7222;57.346;12.150;2022-08-21T11:30:13;22.70;99.90
14277;DHT22;7222;57.346;12.150;2022-08-21T11:32:57;22.70;99.90
14277;DHT22;7222;57.346;12.150;2022-08-21T11:35:32;22.50;99.90
14277;DHT22;7222;57.346;12.150;2022-08-21T11:38:23;22.40;99.90
14277;DHT22;7222;57.346;12.150;2022-08-21T11:41:05;22.00;99.90
14277;DHT22;7222;57.346;12.150;2022-08-21T11:43:38;22.20;99.90
14277;DHT22;7222;57.346;12.150;2022-08-21T11:46:15;22.40;99.90
14277;DHT22;7222;57.346;12.150;2022-08-21T11:48:49;22.30;99.90
14277;DHT22;7222;57.346;12.150;2022-08-21T11:51:34;22.50;99.90
14277;DHT22;7222;57.346;12.150;2022-08-21T11:54:07;22.50;99.90
14277;DHT22;7222;57.346;12.150;2022-08-21T11:56:39;22.40;99.90
14277;DHT22;7222;57.346;12.150;2022-08-21T11:59:11;22.80;99.90
14277;DHT22;7222;57.346;12.150;2022-08-21T12:01:43;22.50;99.90
14277;DHT22;7222;57.346;12.150;2022-08-21T12:04:18;22.60;99.90
14277;DHT22;7222;57.346;12.150;2022-08-21T12:06:47;22.50;99.90
14277;DHT22;7222;57.346;12.150;2022-08-21T12:09:31;22.50;99.90
14277;DHT22;7222;57.346;12.150;2022-08-21T12:12:05;21.90;99.90
14277;DHT22;7222;57.346;12.150;2022-08-21T12:14:39;22.20;99.90
14277;DHT22;7222;57.346;12.150;2022-08-21T12:17:07;22.30;99.90
14277;DHT22;7222;57.346;12.150;2022-08-21T12:19:35;22.90;99.90
14277;DHT22;7222;57.346;12.150;2022-08-21T12:22:10;22.80;99.90
14277;DHT22;7222;57.346;12.150;2022-08-21T12:24:40;22.70;99.90
14277;DHT22;7222;57.346;12.150;2022-08-21T12:27:21;22.50;99.90
14277;DHT22;7222;57.346;12.150;2022-08-21T12:29:52;22.60;99.90
14277;DHT22;7222;57.346;12.150;2022-08-21T12:32:25;23.50;99.90
14277;DHT22;7222;57.346;12.150;2022-08-21T12:34:56;23.20;99.90
14277;DHT22;7222;57.346;12.150;2022-08-21T12:37:30;23.10;99.90
14277;DHT22;7222;57.346;12.150;2022-08-21T12:39:59;22.60;99.90
14277;DHT22;7222;57.346;12.150;2022-08-21T12:42:36;22.50;99.90
14277;DHT22;7222;57.346;12.150;2022-08-21T12:45:11;22.40;99.90
14277;DHT22;7222;57.346;12.150;2022-08-21T12:47:45;22.20;99.90
14277;DHT22;7222;57.346;12.150;2022-08-21T12:50:19;21.80;99.90
14277;DHT22;7222;57.346;12.150;2022-08-21T12:52:54;21.60;99.90
14277;DHT22;7222;57.346;12.150;2022-08-21T12:55:27;21.70;99.90
14277;DHT22;7222;57.346;12.150;2022-08-21T12:57:56;21.40;99.90
14277;DHT22;7222;57.346;12.150;2022-08-21T13:00:26;21.30;99.90
14277;DHT22;7222;57.346;12.150;2022-08-21T13:02:54;20.90;99.90
14277;DHT22;7222;57.346;12.150;2022-08-21T13:05:28;20.80;99.90
14277;DHT22;7222;57.346;12.150;2022-08-21T13:07:55;20.80;99.90
14277;DHT22;7222;57.346;12.150;2022-08-21T13:10:24;20.70;99.90
14277;DHT22;7222;57.346;12.150;2022-08-21T13:12:56;21.00;99.90
14277;DHT22;7222;57.346;12.150;2022-08-21T13:15:26;21.20;99.90
14277;DHT22;7222;57.346;12.150;2022-08-21T13:17:54;21.00;99.90
14277;DHT22;7222;57.346;12.150;2022-08-21T13:20:29;20.90;99.90
14277;DHT22;7222;57.346;12.150;2022-08-21T13:22:57;20.60;99.90
14277;DHT22;7222;57.346;12.150;2022-08-21T13:25:26;20.50;99.90
14277;DHT22;7222;57.346;12.150;2022-08-21T13:28:00;20.60;99.90
14277;DHT22;7222;57.346;12.150;2022-08-21T13:30:28;20.60;99.90
14277;DHT22;7222;57.346;12.150;2022-08-21T13:32:58;20.50;99.90
14277;DHT22;7222;57.346;12.150;2022-08-21T13:35:28;20.40;99.90
14277;DHT22;7222;57.346;12.150;2022-08-21T13:37:57;20.30;99.90
14277;DHT22;7222;57.346;12.150;2022-08-21T13:40:28;20.30;99.90
14277;DHT22;7222;57.346;12.150;2022-08-21T13:42:56;20.20;99.90
14277;DHT22;7222;57.346;12.150;2022-08-21T13:45:29;20.00;99.90
14277;DHT22;7222;57.346;12.150;2022-08-21T13:47:59;20.10;99.90
14277;DHT22;7222;57.346;12.150;2022-08-21T13:50:27;20.00;99.90
14277;DHT22;7222;57.346;12.150;2022-08-21T13:52:59;20.40;99.90
14277;DHT22;7222;57.346;12.150;2022-08-21T13:55:34;20.60;99.90
14277;DHT22;7222;57.346;12.150;2022-08-21T13:58:03;20.70;99.90
14277;DHT22;7222;57.346;12.150;2022-08-21T14:00:35;20.30;99.90
14277;DHT22;7222;57.346;12.150;2022-08-21T14:03:05;20.20;99.90
14277;DHT22;7222;57.346;12.150;2022-08-21T14:05:34;20.10;99.90
14277;DHT22;7222;57.346;12.150;2022-08-21T14:08:05;20.30;99.90
14277;DHT22;7222;57.346;12.150;2022-08-21T14:10:37;20.10;99.90
14277;DHT22;7222;57.346;12.150;2022-08-21T14:13:14;20.00;99.90
14277;DHT22;7222;57.346;12.150;2022-08-21T14:15:57;20.10;99.90
14277;DHT22;7222;57.346;12.150;2022-08-21T14:18:24;19.90;99.90
14277;DHT22;7222;57.346;12.150;2022-08-21T14:21:02;20.00;99.90
14277;DHT22;7222;57.346;12.150;2022-08-21T14:23:29;19.90;99.90
14277;DHT22;7222;57.346;12.150;2022-08-21T14:26:00;19.70;99.90
14277;DHT22;7222;57.346;12.150;2022-08-21T14:28:30;19.60;99.90
14277;DHT22;7222;57.346;12.150;2022-08-21T14:31:11;19.70;99.90
14277;DHT22;7222;57.346;12.150;2022-08-21T14:33:39;19.60;99.90
14277;DHT22;7222;57.346;12.150;2022-08-21T14:36:06;19.70;99.90
14277;DHT22;7222;57.346;12.150;2022-08-21T14:38:36;19.60;99.90
14277;DHT22;7222;57.346;12.150;2022-08-21T14:41:13;19.60;99.90
14277;DHT22;7222;57.346;12.150;2022-08-21T14:43:42;19.80;99.90
14277;DHT22;7222;57.346;12.150;2022-08-21T14:46:12;19.80;99.90
14277;DHT22;7222;57.346;12.150;2022-08-21T14:48:39;19.80;99.90
14277;DHT22;7222;57.346;12.150;2022-08-21T14:51:06;19.90;99.90
14277;DHT22;7222;57.346;12.150;2022-08-21T14:53:33;20.20;99.90
14277;DHT22;7222;57.346;12.150;2022-08-21T14:56:00;20.60;99.90
14277;DHT22;7222;57.346;12.150;2022-08-21T14:58:34;20.80;99.90
14277;DHT22;7222;57.346;12.150;2022-08-21T15:01:03;21.50;99.90
14277;DHT22;7222;57.346;12.150;2022-08-21T15:03:33;21.60;99.90
14277;DHT22;7222;57.346;12.150;2022-08-21T15:06:03;22.20;99.90
14277;DHT22;7222;57.346;12.150;2022-08-21T15:08:30;22.30;99.90
14277;DHT22;7222;57.346;12.150;2022-08-21T15:10:59;22.10;99.90
14277;DHT22;7222;57.346;12.150;2022-08-21T15:13:26;22.20;99.90
14277;DHT22;7222;57.346;12.150;2022-08-21T15:15:53;22.10;99.90
14277;DHT22;7222;57.346;12.150;2022-08-21T15:18:22;22.00;99.90
14277;DHT22;7222;57.346;12.150;2022-08-21T15:20:51;21.60;99.90
14277;DHT22;7222;57.346;12.150;2022-08-21T15:23:18;21.20;99.90
14277;DHT22;7222;57.346;12.150;2022-08-21T15:25:47;21.00;99.90
14277;DHT22;7222;57.346;12.150;2022-08-21T15:28:15;20.90;99.90
14277;DHT22;7222;57.346;12.150;2022-08-21T15:30:44;20.80;99.90
14277;DHT22;7222;57.346;12.150;2022-08-21T15:33:11;21.00;99.90
14277;DHT22;7222;57.346;12.150;2022-08-21T15:35:38;21.20;99.90
14277;DHT22;7222;57.346;12.150;2022-08-21T15:38:07;21.10;99.90
14277;DHT22;7222;57.346;12.150;2022-08-21T15:40:34;21.40;99.90
14277;DHT22;7222;57.346;12.150;2022-08-21T15:43:03;21.60;99.90
14277;DHT22;7222;57.346;12.150;2022-08-21T15:45:31;21.40;99.90
14277;DHT22;7222;57.346;12.150;2022-08-21T15:47:58;21.10;99.90